Kearney, NE

6:35 AM CDT on August 22, 2017 (GMT -0500)
Kearney Municipal

Weather History for KEAR - April, 2014

Change the Weather History Date:

Thursday, April 24, 2014

  Actual Average Record
Temperature  
Mean Temperature 59 °F 52 °F  
Max Temperature 70 °F 65 °F 92 °F (1989)
Min Temperature 48 °F 39 °F 21 °F (1956)
Degree Days  
Heating Degree Days 6 14  
Month to date heating degree days 422  
Cooling Degree Days 0 0  
Month to date cooling degree days 0  
Growing Degree Days 8 (Base 50)    
Moisture  
Dew Point 35 °F    
Average Humidity 51    
Maximum Humidity 86    
Minimum Humidity 16    
Precipitation  
Precipitation 0.20 in - 3.10 in (2007)
Sea Level Pressure  
Sea Level Pressure 29.79 in    
Wind  
Wind Speed 13 mph (NNW)    
Max Wind Speed 24 mph    
Max Gust Speed 30 mph    
Visibility 10 miles    
Events      
T = Trace of Precipitation, MM = Missing Value Source: NWS Daily Summary

Daily Weather History Graph

Daily Weather History Graph

Search for Another Location

Airport or City:

Trip Planner

Search our weather history database for the weather conditions in past years. The results will help you decide how hot, cold, wet, or windy it might be!

Date:

Astronomy

Apr. 24, 2014 Rise Set
Actual Time 6:43 AM CDT 8:24 PM CDT
Civil Twilight 6:14 AM CDT 8:54 PM CDT
Nautical Twilight 5:39 AM CDT 9:29 PM CDT
Astronomical Twilight 5:02 AM CDT 10:07 PM CDT
Moon 3:57 AM CDT (4/24) 3:40 PM CDT (4/24)
Length of Visible Light 14h 39m
Length of Day
13h 41m
Waning Crescent, 24% of the Moon is Illuminated
Apr 24
Waning Crescent
Apr 29
New
May 6
First Quarter
May 14
Full
May 21
Last Quarter

Hourly Weather History & Observations

Time (CDT) Temp. Dew Point Humidity Pressure Visibility Wind Dir Wind Speed Gust Speed Precip Events Conditions
12:15 AM 55.4 °F 48.2 °F 77% 29.66 in 10.0 mi North 20.7 mph - N/A   Overcast
12:35 AM 55.4 °F 48.2 °F 77% 29.66 in 10.0 mi North 15.0 mph - 0.04 in   Overcast
12:55 AM 53.6 °F 48.2 °F 82% 29.66 in 10.0 mi North 18.4 mph - 0.08 in   Overcast
1:15 AM 53.6 °F 48.2 °F 82% 29.69 in 10.0 mi NNW 18.4 mph - 0.04 in   Overcast
1:35 AM 53.6 °F 48.2 °F 82% 29.73 in 10.0 mi NNW 13.8 mph - 0.08 in   Overcast
1:55 AM 53.6 °F 48.2 °F 82% 29.74 in 10.0 mi NW 9.2 mph - 0.12 in   Overcast
2:15 AM 53.6 °F 48.2 °F 82% 29.75 in 10.0 mi WNW 15.0 mph 19.6 mph 0.03 in   Overcast
2:35 AM 51.8 °F 46.4 °F 82% 29.73 in 8.0 mi NNW 16.1 mph - 0.07 in   Overcast
2:55 AM 51.8 °F 46.4 °F 82% 29.72 in 10.0 mi NNW 12.7 mph - 0.08 in   Overcast
3:15 AM 51.8 °F 46.4 °F 82% 29.72 in 10.0 mi North 11.5 mph - N/A   Scattered Clouds
3:35 AM 50.0 °F 46.4 °F 87% 29.71 in 10.0 mi North 9.2 mph - N/A   Clear
3:55 AM 50.0 °F 46.4 °F 87% 29.72 in 10.0 mi NW 6.9 mph - N/A   Scattered Clouds
4:15 AM 50.0 °F 46.4 °F 87% 29.73 in 10.0 mi NW 10.4 mph - N/A   Overcast
4:35 AM 51.8 °F 44.6 °F 76% 29.73 in 10.0 mi NNW 13.8 mph - N/A   Overcast
4:55 AM 51.8 °F 42.8 °F 71% 29.73 in 10.0 mi North 13.8 mph - N/A   Overcast
5:15 AM 51.8 °F 44.6 °F 76% 29.73 in 10.0 mi NNW 11.5 mph - N/A   Overcast
5:35 AM 50.0 °F 44.6 °F 82% 29.75 in 10.0 mi NNW 6.9 mph - N/A   Overcast
5:55 AM 50.0 °F 44.6 °F 82% 29.75 in 10.0 mi NW 10.4 mph - N/A   Overcast
6:15 AM 50.0 °F 44.6 °F 82% 29.75 in 10.0 mi NW 11.5 mph 17.3 mph N/A   Overcast
6:35 AM 50.0 °F 42.8 °F 76% 29.77 in 10.0 mi NW 11.5 mph - N/A   Overcast
6:55 AM 50.0 °F 42.8 °F 76% 29.78 in 10.0 mi NW 10.4 mph - N/A   Overcast
7:15 AM 50.0 °F 42.8 °F 76% 29.77 in 10.0 mi NW 11.5 mph - N/A   Overcast
7:35 AM 50.0 °F 41.0 °F 71% 29.79 in 10.0 mi NW 15.0 mph - N/A   Overcast
7:55 AM 51.8 °F 39.2 °F 62% 29.79 in 10.0 mi NNW 16.1 mph - N/A   Overcast
8:15 AM 50.0 °F 39.2 °F 66% 29.79 in 10.0 mi NW 12.7 mph - N/A   Mostly Cloudy
8:35 AM 50.0 °F 39.2 °F 66% 29.80 in 10.0 mi NNW 15.0 mph 21.9 mph N/A   Partly Cloudy
8:55 AM 51.8 °F 39.2 °F 62% 29.80 in 10.0 mi NNW 17.3 mph 24.2 mph N/A   Clear
9:15 AM 51.8 °F 39.2 °F 62% 29.80 in 10.0 mi NNW 19.6 mph 26.5 mph N/A   Clear
9:35 AM 53.6 °F 39.2 °F 58% 29.81 in 10.0 mi NNW 16.1 mph 24.2 mph N/A   Clear
9:55 AM 55.4 °F 39.2 °F 54% 29.81 in 10.0 mi NNW 18.4 mph 25.3 mph N/A   Clear
10:15 AM 55.4 °F 37.4 °F 51% 29.82 in 10.0 mi NNW 18.4 mph 28.8 mph N/A   Clear
10:35 AM 55.4 °F 37.4 °F 51% 29.82 in 10.0 mi NNW 16.1 mph 24.2 mph N/A   Clear
10:55 AM 57.2 °F 37.4 °F 48% 29.82 in 10.0 mi North 18.4 mph 24.2 mph N/A   Clear
11:15 AM 60.8 °F 35.6 °F 39% 29.83 in 10.0 mi North 21.9 mph 31.1 mph N/A   Clear
11:35 AM 60.8 °F 33.8 °F 36% 29.83 in 10.0 mi NNW 21.9 mph 29.9 mph N/A   Clear
11:55 AM 62.6 °F 30.2 °F 30% 29.83 in 10.0 mi North 24.2 mph 29.9 mph N/A   Clear
12:15 PM 62.6 °F 30.2 °F 30% 29.84 in 10.0 mi NNW 20.7 mph 27.6 mph N/A   Clear
12:35 PM 64.4 °F 28.4 °F 26% 29.84 in 10.0 mi NNW 19.6 mph 25.3 mph N/A   Clear
12:55 PM 64.4 °F 28.4 °F 26% 29.84 in 10.0 mi NNW 19.6 mph 29.9 mph N/A   Clear
1:15 PM 66.2 °F 26.6 °F 23% 29.84 in 10.0 mi NNW 21.9 mph 28.8 mph N/A   Clear
1:35 PM 66.2 °F 26.6 °F 23% 29.83 in 10.0 mi NNW 20.7 mph 32.2 mph N/A   Clear
1:55 PM 66.2 °F 26.6 °F 23% 29.83 in 10.0 mi NNW 18.4 mph 28.8 mph N/A   Clear
2:15 PM 66.2 °F 26.6 °F 23% 29.82 in 10.0 mi NNW 20.7 mph 26.5 mph N/A   Clear
2:35 PM 68.0 °F 26.6 °F 21% 29.82 in 10.0 mi NNW 17.3 mph 27.6 mph N/A   Clear
2:55 PM 68.0 °F 23.0 °F 18% 29.82 in 10.0 mi North 19.6 mph - N/A   Clear
3:15 PM 68.0 °F 24.8 °F 20% 29.82 in 10.0 mi NNW 12.7 mph 29.9 mph N/A   Clear
3:35 PM 68.0 °F 24.8 °F 20% 29.81 in 10.0 mi NNW 16.1 mph 24.2 mph N/A   Clear
3:55 PM 69.8 °F 24.8 °F 18% 29.81 in 10.0 mi NNW 18.4 mph 26.5 mph N/A   Clear
4:15 PM 69.8 °F 24.8 °F 18% 29.81 in 10.0 mi NW 18.4 mph 24.2 mph N/A   Clear
4:35 PM 69.8 °F 24.8 °F 18% 29.80 in 10.0 mi NNW 13.8 mph 23.0 mph N/A   Clear
4:55 PM 69.8 °F 21.2 °F 16% 29.79 in 10.0 mi WNW 13.8 mph - N/A   Clear
5:15 PM 69.8 °F 21.2 °F 16% 29.79 in 10.0 mi NNW 15.0 mph 24.2 mph N/A   Clear
5:35 PM 69.8 °F 21.2 °F 16% 29.79 in 10.0 mi NW 11.5 mph - N/A   Clear
5:55 PM 69.8 °F 21.2 °F 16% 29.79 in 10.0 mi NNW 15.0 mph - N/A   Clear
6:15 PM 69.8 °F 21.2 °F 16% 29.80 in 10.0 mi NW 12.7 mph - N/A   Clear
6:35 PM 68.0 °F 21.2 °F 17% 29.79 in 10.0 mi NW 6.9 mph - N/A   Clear
6:55 PM 68.0 °F 24.8 °F 20% 29.79 in 10.0 mi NW 8.1 mph - N/A   Clear
7:15 PM 66.2 °F 26.6 °F 23% 29.80 in 10.0 mi NW 6.9 mph - N/A   Clear
7:35 PM 66.2 °F 30.2 °F 26% 29.80 in 10.0 mi WNW 4.6 mph - N/A   Clear
7:55 PM 64.4 °F 30.2 °F 28% 29.81 in 10.0 mi WNW 3.5 mph - N/A   Clear
8:15 PM 64.4 °F 30.2 °F 28% 29.81 in 10.0 mi West 5.8 mph - N/A   Clear
8:35 PM 64.4 °F 26.6 °F 24% 29.82 in 10.0 mi West 5.8 mph - N/A   Clear
8:55 PM 62.6 °F 26.6 °F 26% 29.83 in 10.0 mi West 4.6 mph - N/A   Clear
9:15 PM 60.8 °F 26.6 °F 27% 29.83 in 10.0 mi West 3.5 mph - N/A   Clear
9:35 PM 57.2 °F 28.4 °F 33% 29.84 in 10.0 mi Calm Calm - N/A   Clear
9:55 PM 57.2 °F 28.4 °F 33% 29.84 in 10.0 mi WSW 4.6 mph - N/A   Clear
10:15 PM 53.6 °F 30.2 °F 41% 29.84 in 10.0 mi Calm Calm - N/A   Clear
10:35 PM 53.6 °F 32.0 °F 44% 29.84 in 10.0 mi Calm Calm - N/A   Clear
10:55 PM 53.6 °F 30.2 °F 41% 29.85 in 10.0 mi Calm Calm - N/A   Clear
11:15 PM 48.2 °F 33.8 °F 58% 29.85 in 10.0 mi Calm Calm - N/A   Clear
11:35 PM 48.2 °F 33.8 °F 58% 29.84 in 10.0 mi Calm Calm - N/A   Clear
11:55 PM 51.8 °F 32.0 °F 47% 29.84 in 10.0 mi Calm Calm - N/A   Clear